Time;durP1;ratioP1;P1;durP2;ratioP2;P2;SDS_P1;SDS_P2;PMS_P1;PMS_P2;Temp;Humidity;BMP_temperature;BMP_pressure;BME280_temperature;BME280_humidity;BME280_pressure;Samples;Min_cycle;Max_cycle;Signal;HPM_P1;HPM_P2
2022/11/06 00:00:06;;;;;;;;;;;;;;;12.80;57.09;93047.91;5028315;28;19913;-34
2022/11/06 00:02:32;;;;;;;;;;;;;;;12.82;56.78;93057.09;5025792;28;20377;-34
2022/11/06 00:06:46;;;;;;;;;;;;;;;12.87;56.61;93049.84;5022366;28;19917;-34
2022/11/06 00:07:45;;;;;;;;;;;;;;;13.02;56.04;93057.22;5030381;28;19955;-34
2022/11/06 00:10:11;;;;;;;;;;;;;;;13.02;56.03;93065.53;5025593;28;19913;-34
2022/11/06 00:12:36;;;;;;;;;;;;;;;12.95;56.14;93065.06;5027484;28;20320;-34
2022/11/06 00:15:02;;;;;;;;;;;;;;;13.02;55.87;93060.00;5030109;28;20381;-34
2022/11/06 00:17:27;;;;;;;;;;;;;;;13.01;56.25;93067.59;5029225;28;19916;-35
2022/11/06 00:19:52;;;;;;;;;;;;;;;13.08;56.39;93072.31;5021328;28;20305;-35
2022/11/06 00:22:18;;;;;;;;;;;;;;;13.16;56.31;93069.47;5019400;28;19916;-35
2022/11/06 00:24:43;;;;;;;;;;;;;;;13.11;56.22;93064.91;5024186;28;20305;-35
2022/11/06 00:27:08;;;;;;;;;;;;;;;13.02;56.74;93060.72;5025625;28;20298;-34
2022/11/06 00:29:34;;;;;;;;;;;;;;;13.01;56.77;93055.78;5028015;28;20004;-35
2022/11/06 00:31:59;;;;;;;;;;;;;;;13.01;56.78;93050.22;5025591;28;20440;-35
2022/11/06 00:34:24;;;;;;;;;;;;;;;13.01;57.11;93058.53;5022843;28;20397;-34
2022/11/06 00:36:50;;;;;;;;;;;;;;;12.73;59.20;93052.22;5020086;28;19917;-34
2022/11/06 00:39:15;;;;;;;;;;;;;;;12.54;59.74;93048.59;5048311;28;19923;-34
2022/11/06 00:41:40;;;;;;;;;;;;;;;12.54;60.16;93043.06;5045656;28;19913;-34
2022/11/06 00:44:05;;;;;;;;;;;;;;;12.50;60.47;93046.22;5049079;28;19917;-34
2022/11/06 00:46:31;;;;;;;;;;;;;;;12.47;60.57;93035.56;5047706;28;19973;-34
2022/11/06 00:48:56;;;;;;;;;;;;;;;12.45;59.42;93038.88;5048262;28;19917;-34
2022/11/06 00:51:29;;;;;;;;;;;;;;;12.52;59.01;93031.81;5045486;28;20381;-34
2022/11/06 00:53:58;;;;;;;;;;;;;;;12.54;58.74;93038.22;5048182;28;19913;-34
2022/11/06 00:56:24;;;;;;;;;;;;;;;12.66;58.46;93035.72;5045290;28;19912;-34
2022/11/06 00:58:49;;;;;;;;;;;;;;;12.67;58.66;93040.66;5043878;28;19913;-34
2022/11/06 01:01:15;;;;;;;;;;;;;;;12.70;58.71;93031.22;5040501;28;19939;-34
2022/11/06 01:03:41;;;;;;;;;;;;;;;12.64;58.95;93044.59;5047750;28;19919;-35
2022/11/06 01:06:08;;;;;;;;;;;;;;;12.65;59.10;93029.44;5048958;28;19917;-34
2022/11/06 01:08:33;;;;;;;;;;;;;;;12.71;59.02;93040.28;5053004;28;19921;-34
2022/11/06 01:11:04;;;;;;;;;;;;;;;12.74;58.98;93041.88;5048836;28;19919;-34
2022/11/06 01:13:30;;;;;;;;;;;;;;;12.70;59.27;93041.56;5047511;28;20012;-34
2022/11/06 01:15:55;;;;;;;;;;;;;;;12.63;60.06;93040.34;5049618;28;20011;-34
2022/11/06 01:18:20;;;;;;;;;;;;;;;12.64;60.27;93033.53;5050155;28;19912;-34
2022/11/06 01:20:45;;;;;;;;;;;;;;;12.60;60.89;93035.22;5044050;28;19913;-34
2022/11/06 01:23:11;;;;;;;;;;;;;;;12.43;61.80;93038.72;5044573;28;19967;-34
2022/11/06 01:25:36;;;;;;;;;;;;;;;12.36;62.49;93038.81;5047860;28;19962;-34
2022/11/06 01:28:01;;;;;;;;;;;;;;;12.37;62.53;93035.47;5047039;28;19966;-34
2022/11/06 01:30:26;;;;;;;;;;;;;;;12.36;63.07;93038.81;5044534;28;20371;-35
2022/11/06 01:32:52;;;;;;;;;;;;;;;12.34;63.26;93016.53;5044245;28;19915;-35
2022/11/06 01:35:17;;;;;;;;;;;;;;;12.28;63.79;93025.06;5050564;28;19913;-34
2022/11/06 01:37:42;;;;;;;;;;;;;;;12.27;63.63;93029.13;5043985;28;19920;-35
2022/11/06 01:40:08;;;;;;;;;;;;;;;12.27;63.61;93022.88;5044819;28;19959;-35
2022/11/06 01:42:33;;;;;;;;;;;;;;;12.28;63.34;93025.06;5047119;28;20381;-40
2022/11/06 01:44:58;;;;;;;;;;;;;;;12.35;63.73;93018.72;5046531;28;19913;-39
2022/11/06 01:47:25;;;;;;;;;;;;;;;12.35;64.03;93026.28;5042573;28;20462;-39
2022/11/06 01:49:51;;;;;;;;;;;;;;;12.25;64.10;93020.69;5040510;28;19912;-39
2022/11/06 01:52:17;;;;;;;;;;;;;;;12.34;64.45;93016.53;5049100;28;20008;-39
2022/11/06 01:54:42;;;;;;;;;;;;;;;12.42;64.33;93026.19;5031294;28;20008;-34
2022/11/06 01:57:07;;;;;;;;;;;;;;;12.39;64.28;93023.84;5041199;28;19920;-34
2022/11/06 01:59:35;;;;;;;;;;;;;;;12.34;64.66;93019.28;5043625;28;19913;-34
2022/11/06 02:02:00;;;;;;;;;;;;;;;12.36;64.66;93025.72;5030048;28;20051;-34
2022/11/06 02:04:27;;;;;;;;;;;;;;;12.34;65.43;93019.28;5045444;28;20007;-34
2022/11/06 02:06:53;;;;;;;;;;;;;;;12.27;65.58;93011.78;5048250;28;19908;-34
2022/11/06 02:09:18;;;;;;;;;;;;;;;12.23;65.81;93017.75;5032880;28;19913;-34
2022/11/06 02:11:44;;;;;;;;;;;;;;;12.25;65.81;93019.94;5049242;28;20066;-34
2022/11/06 02:14:16;;;;;;;;;;;;;;;12.23;65.73;93030.84;5029231;28;19909;-34
2022/11/06 02:16:46;;;;;;;;;;;;;;;12.16;66.04;93024.09;5031762;28;20635;-34
2022/11/06 02:19:19;;;;;;;;;;;;;;;12.05;66.18;93025.31;5044557;28;20061;-34
2022/11/06 02:21:45;;;;;;;;;;;;;;;12.12;65.76;93026.53;5031614;28;19912;-34
2022/11/06 02:24:29;;;;;;;;;;;;;;;12.06;65.75;93026.75;5044282;28;20384;-35
2022/11/06 02:27:09;;;;;;;;;;;;;;;12.05;65.78;93038.41;5041549;28;20316;-34
2022/11/06 02:29:34;;;;;;;;;;;;;;;12.03;66.31;93027.91;5047269;28;19909;-35
2022/11/06 02:32:00;;;;;;;;;;;;;;;11.94;66.67;93031.31;5042203;28;19947;-34
2022/11/06 02:34:26;;;;;;;;;;;;;;;11.98;66.79;93025.38;5026127;28;19921;-35
2022/11/06 02:36:56;;;;;;;;;;;;;;;12.01;66.81;93030.50;5032114;28;19919;-35
2022/11/06 02:39:21;;;;;;;;;;;;;;;11.98;67.03;93041.97;5031290;28;20033;-35
2022/11/06 02:41:47;;;;;;;;;;;;;;;12.02;66.84;93036.75;5049300;28;20580;-35
2022/11/06 02:44:16;;;;;;;;;;;;;;;11.94;68.04;93042.38;5025816;28;20003;-35
2022/11/06 02:46:42;;;;;;;;;;;;;;;11.85;68.33;93053.34;5047980;28;20389;-35
2022/11/06 02:49:16;;;;;;;;;;;;;;;11.84;70.47;93047.09;5032198;28;19959;-34
2022/11/06 02:51:43;;;;;;;;;;;;;;;11.90;70.87;93049.59;5047939;28;20419;-35
2022/11/06 02:54:08;;;;;;;;;;;;;;;11.93;70.73;93048.50;5041290;28;20277;-34
2022/11/06 02:56:35;;;;;;;;;;;;;;;11.95;71.64;93051.41;5041517;28;20054;-34
2022/11/06 02:59:04;;;;;;;;;;;;;;;11.91;71.92;93062.88;5051088;28;19936;-34
2022/11/06 03:01:30;;;;;;;;;;;;;;;11.75;73.09;93061.53;5051181;28;20320;-35
2022/11/06 03:03:57;;;;;;;;;;;;;;;11.81;73.67;93061.31;5046039;28;19995;-35
2022/11/06 03:06:26;;;;;;;;;;;;;;;11.72;74.50;93064.69;5053056;28;20336;-35
2022/11/06 03:08:53;;;;;;;;;;;;;;;11.75;74.56;93067.06;5034421;28;19912;-35
2022/11/06 03:11:22;;;;;;;;;;;;;;;11.66;74.83;93062.13;5033557;28;20324;-35
2022/11/06 03:13:51;;;;;;;;;;;;;;;11.66;75.24;93078.72;5034143;28;19913;-35
2022/11/06 03:16:32;;;;;;;;;;;;;;;11.63;75.75;93079.84;5050948;28;19916;-34
2022/11/06 03:19:12;;;;;;;;;;;;;;;11.60;76.01;93083.75;5033316;28;19916;-34
2022/11/06 03:21:58;;;;;;;;;;;;;;;11.58;76.40;93083.59;5049773;28;20273;-34
2022/11/06 03:24:32;;;;;;;;;;;;;;;11.57;76.32;93082.09;5031325;28;19978;-34
2022/11/06 03:26:57;;;;;;;;;;;;;;;11.61;76.32;93081.72;5049074;28;20315;-34
2022/11/06 03:29:33;;;;;;;;;;;;;;;11.57;76.75;93070.31;5033126;28;19917;-35
2022/11/06 03:32:00;;;;;;;;;;;;;;;11.53;76.65;93081.03;5033411;28;20282;-34
2022/11/06 03:34:30;;;;;;;;;;;;;;;11.46;76.58;93088.09;5036602;28;19915;-34
2022/11/06 03:37:03;;;;;;;;;;;;;;;11.51;76.65;93092.66;5057134;28;19919;-34
2022/11/06 03:39:30;;;;;;;;;;;;;;;11.55;76.58;93089.50;5033725;28;20006;-34
2022/11/06 03:42:22;;;;;;;;;;;;;;;11.52;76.67;93085.81;5011060;28;20305;-34
2022/11/06 03:44:48;;;;;;;;;;;;;;;11.62;76.83;93092.22;5031946;28;19959;-34
2022/11/06 03:47:17;;;;;;;;;;;;;;;11.52;77.13;93090.63;5026222;28;19909;-34
2022/11/06 03:49:44;;;;;;;;;;;;;;;11.56;77.38;93102.78;5015476;28;19916;-34
2022/11/06 03:52:11;;;;;;;;;;;;;;;11.57;77.26;93098.69;5035386;28;19959;-34
2022/11/06 03:54:45;;;;;;;;;;;;;;;11.50;77.95;93096.72;5032254;28;19913;-34
2022/11/06 03:57:15;;;;;;;;;;;;;;;11.50;77.64;93105.00;5015055;28;19913;-34
2022/11/06 03:59:41;;;;;;;;;;;;;;;11.54;77.80;93097.06;5017882;28;19924;-34
2022/11/06 04:02:06;;;;;;;;;;;;;;;11.44;78.79;93102.47;5014024;28;20008;-34
2022/11/06 04:04:42;;;;;;;;;;;;;;;11.43;78.36;93089.94;5027387;28;20382;-34
2022/11/06 04:07:12;;;;;;;;;;;;;;;11.50;78.11;93090.47;5015444;28;19915;-34
2022/11/06 04:15:06;;;;;;;;;;;;;;;11.50;75.93;93090.47;5017407;28;19919;-34
2022/11/06 04:17:31;;;;;;;;;;;;;;;11.47;75.99;93084.03;5031598;28;19996;-34
2022/11/06 04:19:57;;;;;;;;;;;;;;;11.57;75.41;93078.59;5015529;28;19982;-35
2022/11/06 04:22:38;;;;;;;;;;;;;;;11.59;75.28;93090.56;5021738;28;20012;-35
2022/11/06 04:28:22;;;;;;;;;;;;;;;11.53;74.67;93092.84;5033021;28;19924;-34
2022/11/06 04:31:01;;;;;;;;;;;;;;;11.51;75.15;93095.44;5032986;28;19913;-35
2022/11/06 04:33:32;;;;;;;;;;;;;;;11.62;74.32;93097.75;5032342;28;19920;-35
2022/11/06 04:36:00;;;;;;;;;;;;;;;11.57;73.85;93086.91;5025941;28;19917;-35
2022/11/06 04:38:40;;;;;;;;;;;;;;;11.69;74.05;93083.16;5040008;28;19917;-35
2022/11/06 04:41:14;;;;;;;;;;;;;;;11.66;73.72;93098.09;5049394;28;20396;-34
2022/11/06 04:43:43;;;;;;;;;;;;;;;11.68;73.58;93092.00;5050065;28;19909;-34
2022/11/06 04:46:09;;;;;;;;;;;;;;;11.58;73.85;93097.41;5046239;28;19913;-34
2022/11/06 04:48:34;;;;;;;;;;;;;;;11.62;74.38;93097.75;5029353;28;20305;-34
2022/11/06 04:51:00;;;;;;;;;;;;;;;11.63;75.13;93095.72;5048751;28;19913;-36
2022/11/06 04:53:26;;;;;;;;;;;;;;;11.63;75.29;93095.72;5047926;28;19939;-35
2022/11/06 04:55:53;;;;;;;;;;;;;;;11.65;75.44;93104.91;5047321;28;19951;-35
2022/11/06 04:58:18;;;;;;;;;;;;;;;11.65;75.41;93104.91;5047262;28;19913;-34
2022/11/06 05:00:45;;;;;;;;;;;;;;;11.66;75.14;93109.16;5049680;28;19908;-35
2022/11/06 05:03:10;;;;;;;;;;;;;;;11.70;74.89;93108.78;5044163;28;19958;-35
2022/11/06 05:05:35;;;;;;;;;;;;;;;11.69;74.87;93105.28;5048613;28;19967;-35
2022/11/06 05:08:01;;;;;;;;;;;;;;;11.77;74.50;93117.03;5049947;28;19916;-34
2022/11/06 05:10:26;;;;;;;;;;;;;;;11.74;73.92;93114.63;5040561;28;20328;-35
2022/11/06 05:12:51;;;;;;;;;;;;;;;11.67;73.67;93118.22;5046859;28;19912;-35
2022/11/06 05:15:17;;;;;;;;;;;;;;;11.60;73.73;93118.97;5046670;28;19913;-35
2022/11/06 05:17:42;;;;;;;;;;;;;;;11.53;73.95;93109.41;5023362;28;19936;-35
2022/11/06 05:20:07;;;;;;;;;;;;;;;11.61;73.85;93121.16;5042021;28;20316;-35
2022/11/06 05:25:16;;;;;;;;;;;;;;;11.77;73.67;93116.28;5048813;28;20316;-35
2022/11/06 05:27:42;;;;;;;;;;;;;;;11.93;73.16;93112.13;5039299;28;19909;-35
2022/11/06 05:30:07;;;;;;;;;;;;;;;11.94;72.75;93125.38;5047124;28;19924;-35
2022/11/06 05:32:32;;;;;;;;;;;;;;;11.87;72.60;93119.88;5038593;28;19917;-35
2022/11/06 05:34:58;;;;;;;;;;;;;;;11.86;72.75;93121.19;5044552;28;20340;-35
2022/11/06 05:37:23;;;;;;;;;;;;;;;11.87;72.66;93115.09;5045107;28;19908;-35
2022/11/06 05:39:48;;;;;;;;;;;;;;;11.84;72.96;93119.00;5047373;28;19963;-35
2022/11/06 05:42:14;;;;;;;;;;;;;;;11.84;72.85;93127.31;5049793;28;20388;-35
2022/11/06 05:44:39;;;;;;;;;;;;;;;12.04;71.87;93123.44;5048523;28;19916;-35
2022/11/06 05:47:04;;;;;;;;;;;;;;;12.10;71.07;93126.72;5044214;28;19915;-34
2022/11/06 05:49:30;;;;;;;;;;;;;;;12.09;71.15;93133.56;5049751;28;19971;-34
2022/11/06 05:51:55;;;;;;;;;;;;;;;12.00;71.17;93136.19;5030045;28;20316;-34
2022/11/06 05:54:20;;;;;;;;;;;;;;;12.13;70.60;93138.69;5045254;28;20000;-34
2022/11/06 05:56:45;;;;;;;;;;;;;;;12.17;70.27;93144.56;5042690;28;20022;-34
2022/11/06 05:59:11;;;;;;;;;;;;;;;12.15;70.37;93145.13;5043504;28;19967;-34
2022/11/06 06:01:37;;;;;;;;;;;;;;;12.12;70.37;93146.25;5046691;28;20373;-35
2022/11/06 06:04:02;;;;;;;;;;;;;;;12.00;70.93;93136.94;5045329;28;19913;-35
2022/11/06 06:06:27;;;;;;;;;;;;;;;12.05;70.66;93154.63;5046936;28;19970;-35
2022/11/06 06:08:53;;;;;;;;;;;;;;;12.12;70.37;93145.53;5056871;28;20460;-35
2022/11/06 06:11:18;;;;;;;;;;;;;;;12.26;69.75;93154.28;5043693;28;20316;-34
2022/11/06 06:13:43;;;;;;;;;;;;;;;12.27;69.73;93155.72;5043896;28;19919;-35
2022/11/06 06:16:09;;;;;;;;;;;;;;;12.37;69.61;93153.78;5046643;28;19913;-34
2022/11/06 06:18:34;;;;;;;;;;;;;;;12.45;69.57;93157.22;5046298;28;19920;-34
2022/11/06 06:20:59;;;;;;;;;;;;;;;12.50;69.33;93167.31;5043520;28;19955;-35
2022/11/06 06:23:24;;;;;;;;;;;;;;;12.56;68.95;93165.78;5047875;28;19917;-35
2022/11/06 06:25:50;;;;;;;;;;;;;;;12.52;68.63;93170.25;5051639;28;19916;-34
2022/11/06 06:28:15;;;;;;;;;;;;;;;12.51;68.17;93174.34;5051227;28;19913;-35
2022/11/06 06:30:40;;;;;;;;;;;;;;;12.59;67.99;93181.28;5047321;28;19917;-35
2022/11/06 06:33:07;;;;;;;;;;;;;;;12.67;67.71;93173.63;5046765;28;19995;-34
2022/11/06 06:35:32;;;;;;;;;;;;;;;12.77;67.47;93184.78;5048600;28;19952;-34
2022/11/06 06:37:58;;;;;;;;;;;;;;;12.83;67.11;93182.50;5045773;28;19981;-35
2022/11/06 06:40:23;;;;;;;;;;;;;;;12.88;67.14;93189.84;5050728;28;19979;-35
2022/11/06 06:42:48;;;;;;;;;;;;;;;12.96;67.11;93190.50;5050708;28;20580;-35
2022/11/06 06:45:14;;;;;;;;;;;;;;;13.05;66.77;93192.66;5050468;28;20281;-35
2022/11/06 06:47:39;;;;;;;;;;;;;;;13.06;66.49;93198.94;5051651;28;20307;-35
2022/11/06 06:50:05;;;;;;;;;;;;;;;13.17;66.33;93201.19;5042813;28;19917;-35
2022/11/06 06:52:30;;;;;;;;;;;;;;;13.10;66.89;93186.13;5050649;28;19920;-35
2022/11/06 06:54:55;;;;;;;;;;;;;;;13.21;66.60;93196.00;5052050;28;20360;-35
2022/11/06 06:57:21;;;;;;;;;;;;;;;13.13;66.74;93195.31;5051476;28;19935;-35
2022/11/06 06:59:46;;;;;;;;;;;;;;;13.17;67.12;93199.16;5052756;28;19935;-35
2022/11/06 07:02:12;;;;;;;;;;;;;;;13.18;67.26;93199.91;5048191;28;19925;-35
2022/11/06 07:04:37;;;;;;;;;;;;;;;13.16;67.35;93213.59;5045442;28;19909;-35
2022/11/06 07:07:02;;;;;;;;;;;;;;;13.05;68.01;93203.75;5045779;28;19970;-35
2022/11/06 07:09:31;;;;;;;;;;;;;;;13.27;67.91;93215.88;5050620;28;19932;-36
2022/11/06 07:11:56;;;;;;;;;;;;;;;13.20;68.02;93209.13;5050935;28;19939;-35
2022/11/06 07:14:22;;;;;;;;;;;;;;;13.30;68.15;93209.16;5051269;28;19913;-35
2022/11/06 07:16:47;;;;;;;;;;;;;;;13.37;68.05;93211.88;5046715;28;20387;-35
2022/11/06 07:19:12;;;;;;;;;;;;;;;13.49;67.70;93217.66;5047885;28;20381;-35
2022/11/06 07:21:38;;;;;;;;;;;;;;;13.55;67.57;93210.53;5049635;28;19916;-35
2022/11/06 07:24:03;;;;;;;;;;;;;;;13.71;67.46;93224.22;5053118;28;20423;-35
2022/11/06 07:26:28;;;;;;;;;;;;;;;13.77;67.48;93227.47;5050011;28;20381;-35
2022/11/06 07:28:54;;;;;;;;;;;;;;;13.73;67.61;93225.09;5047043;28;19985;-35
2022/11/06 07:31:19;;;;;;;;;;;;;;;13.79;67.26;93230.41;5049033;28;19909;-35
2022/11/06 07:33:44;;;;;;;;;;;;;;;13.84;67.29;93224.56;5046831;28;19913;-36
2022/11/06 07:36:11;;;;;;;;;;;;;;;13.85;67.34;93214.97;5050219;28;19920;-35
2022/11/06 07:38:37;;;;;;;;;;;;;;;13.87;67.28;93231.03;5049057;28;20454;-35
2022/11/06 07:41:03;;;;;;;;;;;;;;;13.81;67.52;93225.75;5052109;28;19955;-35
2022/11/06 07:43:28;;;;;;;;;;;;;;;13.93;66.92;93223.16;5051499;28;20015;-35
2022/11/06 07:45:53;;;;;;;;;;;;;;;14.03;66.71;93221.19;5045502;28;20015;-35
2022/11/06 07:48:19;;;;;;;;;;;;;;;14.17;66.36;93230.59;5033813;28;19913;-35
2022/11/06 07:50:44;;;;;;;;;;;;;;;14.21;65.71;93234.41;5053120;28;19909;-35
2022/11/06 07:53:09;;;;;;;;;;;;;;;14.36;65.44;93234.22;5046150;28;19916;-35
2022/11/06 07:55:35;;;;;;;;;;;;;;;14.47;65.46;93235.72;5043615;28;20388;-34
2022/11/06 07:58:00;;;;;;;;;;;;;;;14.49;65.58;93240.72;5045789;28;20691;-34
2022/11/06 08:00:25;;;;;;;;;;;;;;;14.58;65.46;93237.22;5049097;28;19921;-34
2022/11/06 08:02:51;;;;;;;;;;;;;;;14.44;66.56;93245.22;5045724;28;20297;-34
2022/11/06 08:05:17;;;;;;;;;;;;;;;14.25;68.37;93239.56;5049193;28;19912;-34
2022/11/06 08:07:43;;;;;;;;;;;;;;;14.06;69.85;93245.75;5054472;28;19915;-34
2022/11/06 08:10:08;;;;;;;;;;;;;;;13.96;71.43;93256.06;5043222;28;19913;-34
2022/11/06 08:12:33;;;;;;;;;;;;;;;13.75;72.68;93260.59;5052268;28;19916;-35
2022/11/06 08:14:59;;;;;;;;;;;;;;;13.74;73.69;93261.91;5046787;28;19913;-34
2022/11/06 08:17:24;;;;;;;;;;;;;;;13.70;74.44;93270.66;5051088;28;19909;-34
2022/11/06 08:19:49;;;;;;;;;;;;;;;13.61;75.03;93265.75;5044778;28;20380;-34
2022/11/06 08:22:15;;;;;;;;;;;;;;;13.64;76.20;93270.88;5046763;28;19918;-34
2022/11/06 08:24:40;;;;;;;;;;;;;;;13.63;75.81;93272.22;5049238;28;20003;-34
2022/11/06 08:27:05;;;;;;;;;;;;;;;13.66;76.91;93275.88;5047593;28;19944;-34
2022/11/06 08:29:31;;;;;;;;;;;;;;;13.69;77.73;93288.59;5046031;28;19920;-34
2022/11/06 08:31:56;;;;;;;;;;;;;;;13.62;78.55;93284.59;5043597;28;20043;-34
2022/11/06 08:34:21;;;;;;;;;;;;;;;13.69;79.00;93281.00;5041925;28;19920;-34
2022/11/06 08:36:50;;;;;;;;;;;;;;;13.66;79.62;93282.16;5046298;28;20334;-35
2022/11/06 08:39:16;;;;;;;;;;;;;;;13.79;78.87;93285.91;5044941;28;19917;-34
2022/11/06 08:41:41;;;;;;;;;;;;;;;13.85;77.68;93276.00;5043961;28;19920;-35
2022/11/06 08:44:07;;;;;;;;;;;;;;;13.86;78.33;93277.47;5044406;28;19915;-35
2022/11/06 08:46:32;;;;;;;;;;;;;;;13.80;78.79;93285.31;5045263;28;20385;-34
2022/11/06 08:48:57;;;;;;;;;;;;;;;13.94;78.98;93277.38;5046815;28;19919;-34
2022/11/06 08:51:23;;;;;;;;;;;;;;;14.08;78.99;93270.88;5044287;28;20589;-41
2022/11/06 08:53:48;;;;;;;;;;;;;;;14.18;79.22;93273.72;5044770;28;19917;-42
2022/11/06 08:56:13;;;;;;;;;;;;;;;14.23;79.28;93269.94;5044118;28;19948;-45
2022/11/06 08:58:39;;;;;;;;;;;;;;;14.34;78.79;93275.00;5042653;28;19923;-42
2022/11/06 09:01:04;;;;;;;;;;;;;;;14.37;77.64;93282.19;5045051;28;20007;-43
2022/11/06 09:03:29;;;;;;;;;;;;;;;14.44;77.35;93279.28;5045030;28;19915;-43
2022/11/06 09:05:54;;;;;;;;;;;;;;;14.35;76.14;93279.25;5047088;28;19982;-42
2022/11/06 09:08:20;;;;;;;;;;;;;;;14.44;75.31;93276.50;5048239;28;20015;-41
2022/11/06 09:10:45;;;;;;;;;;;;;;;14.53;76.29;93285.47;5046713;28;19913;-41
2022/11/06 09:13:11;;;;;;;;;;;;;;;14.56;76.73;93284.28;5043721;28;19912;-42
2022/11/06 09:15:36;;;;;;;;;;;;;;;14.60;76.35;93284.59;5043790;28;19912;-41
2022/11/06 09:18:02;;;;;;;;;;;;;;;14.69;75.75;93281.88;5048661;28;19908;-42
2022/11/06 09:20:27;;;;;;;;;;;;;;;14.68;76.99;93274.84;5037973;28;19924;-41
2022/11/06 09:22:53;;;;;;;;;;;;;;;14.78;77.96;93280.44;5048698;28;19913;-41
2022/11/06 09:25:18;;;;;;;;;;;;;;;14.84;77.44;93278.09;5044815;28;19916;-42
2022/11/06 09:27:49;;;;;;;;;;;;;;;14.84;76.77;93278.09;5044919;28;19924;-44
2022/11/06 09:30:15;;;;;;;;;;;;;;;14.80;75.86;93289.66;5048546;28;20396;-42
2022/11/06 09:32:44;;;;;;;;;;;;;;;14.76;75.93;93296.97;5039985;28;19916;-42
2022/11/06 09:35:09;;;;;;;;;;;;;;;14.68;75.84;93307.47;5044827;28;19913;-43
2022/11/06 09:37:35;;;;;;;;;;;;;;;14.54;76.92;93300.81;5042520;28;19928;-43
2022/11/06 09:40:00;;;;;;;;;;;;;;;14.42;77.65;93309.66;5044806;28;19940;-44
2022/11/06 09:42:34;;;;;;;;;;;;;;;14.38;77.37;93314.19;5044395;28;20004;-42
2022/11/06 09:45:23;;;;;;;;;;;;;;;14.20;77.58;93304.44;5041734;28;19912;-43
2022/11/06 09:47:53;;;;;;;;;;;;;;;13.80;79.49;93315.09;5032025;28;19959;-42
2022/11/06 09:50:23;;;;;;;;;;;;;;;13.75;81.58;93310.56;5043251;28;19916;-44
2022/11/06 09:52:49;;;;;;;;;;;;;;;13.72;80.60;93311.69;5029225;28;20059;-41
2022/11/06 09:55:17;;;;;;;;;;;;;;;13.72;80.23;93311.69;5033603;28;20361;-42
2022/11/06 09:57:44;;;;;;;;;;;;;;;13.62;80.62;93317.19;5035375;28;19939;-42
2022/11/06 10:00:11;;;;;;;;;;;;;;;13.54;81.01;93308.19;5035005;28;19917;-41
2022/11/06 10:02:49;;;;;;;;;;;;;;;13.32;82.18;93312.66;5035893;28;19923;-41
2022/11/06 10:05:25;;;;;;;;;;;;;;;13.39;81.46;93316.66;5035750;28;19920;-42
2022/11/06 10:07:58;;;;;;;;;;;;;;;13.36;nan;93310.22;5030827;28;20003;-42
2022/11/06 10:10:31;;;;;;;;;;;;;;;13.17;82.18;93321.13;5049728;28;19909;-42
2022/11/06 10:12:56;;;;;;;;;;;;;;;13.14;81.87;93316.00;5045895;28;19991;-43
2022/11/06 10:15:40;;;;;;;;;;;;;;;13.05;82.22;93316.63;5046079;28;20066;-42
2022/11/06 10:18:09;;;;;;;;;;;;;;;12.96;83.60;93320.75;5049998;28;20384;-43
2022/11/06 10:20:54;;;;;;;;;;;;;;;13.01;82.63;93319.03;5029431;28;20418;-42
2022/11/06 10:23:23;;;;;;;;;;;;;;;13.11;82.73;93319.91;5038047;28;20376;-42
2022/11/06 10:25:51;;;;;;;;;;;;;;;13.15;83.26;93323.75;5048302;28;19916;-42
2022/11/06 10:28:37;;;;;;;;;;;;;;;13.15;80.82;93329.28;5052112;28;19917;-45
2022/11/06 10:31:06;;;;;;;;;;;;;;;12.97;82.85;93336.09;5053604;28;19920;-44
2022/11/06 10:33:41;;;;;;;;;;;;;;;12.90;82.46;93339.66;5049973;28;19913;-42
2022/11/06 10:36:14;;;;;;;;;;;;;;;12.78;83.70;93344.91;5046220;28;19921;-43
2022/11/06 10:38:41;;;;;;;;;;;;;;;12.80;82.59;93341.56;5034562;28;19948;-34
2022/11/06 10:41:12;;;;;;;;;;;;;;;12.79;83.30;93334.56;5032831;28;20286;-34
2022/11/06 10:43:48;;;;;;;;;;;;;;;12.73;81.33;93332.00;5029341;28;19920;-34
2022/11/06 10:46:17;;;;;;;;;;;;;;;12.67;83.11;93334.28;5029430;28;20341;-34
2022/11/06 10:48:46;;;;;;;;;;;;;;;12.80;81.71;93327.69;5050558;28;19940;-35
2022/11/06 10:51:26;;;;;;;;;;;;;;;12.81;81.33;93334.72;5034719;28;19909;-35
2022/11/06 10:54:02;;;;;;;;;;;;;;;12.79;81.14;93329.75;5050459;28;19970;-34
2022/11/06 10:56:31;;;;;;;;;;;;;;;12.84;81.40;93328.78;5051581;28;20448;-35
2022/11/06 10:58:56;;;;;;;;;;;;;;;12.82;82.85;93320.31;5058067;28;19986;-35
2022/11/06 11:01:21;;;;;;;;;;;;;;;12.88;81.79;93306.22;5051037;28;19916;-34
2022/11/06 11:03:46;;;;;;;;;;;;;;;12.94;81.63;93301.19;5053409;28;19916;-35
2022/11/06 11:06:12;;;;;;;;;;;;;;;13.10;81.96;93288.69;5032980;28;19912;-35
2022/11/06 11:08:47;;;;;;;;;;;;;;;13.30;80.91;93297.91;5051128;28;19924;-35
2022/11/06 11:11:12;;;;;;;;;;;;;;;13.50;79.96;93294.00;5048382;28;20411;-35
2022/11/06 11:13:37;;;;;;;;;;;;;;;13.49;79.47;93303.63;5048347;28;19913;-35
2022/11/06 11:16:03;;;;;;;;;;;;;;;13.66;78.95;93298.06;5044511;28;19909;-34
2022/11/06 11:18:32;;;;;;;;;;;;;;;13.76;78.32;93290.53;5047962;28;19924;-34
2022/11/06 11:21:17;;;;;;;;;;;;;;;13.82;78.13;93293.78;5048246;28;19912;-35
2022/11/06 11:23:43;;;;;;;;;;;;;;;13.92;78.15;93300.16;5044139;28;19913;-34
2022/11/06 11:26:14;;;;;;;;;;;;;;;13.92;78.34;93296.66;5045945;28;19997;-35
2022/11/06 11:28:40;;;;;;;;;;;;;;;14.01;78.15;93293.22;5048932;28;19920;-34
2022/11/06 11:31:09;;;;;;;;;;;;;;;14.06;78.56;93286.66;5034069;28;20304;-35
2022/11/06 11:33:35;;;;;;;;;;;;;;;14.10;76.98;93292.50;5028833;28;19912;-34
2022/11/06 11:36:01;;;;;;;;;;;;;;;14.10;76.45;93298.06;5047915;28;19917;-34
2022/11/06 11:38:27;;;;;;;;;;;;;;;14.12;76.32;93298.25;5032452;28;20015;-34
2022/11/06 11:40:52;;;;;;;;;;;;;;;14.11;76.01;93296.78;5027533;28;20361;-34
2022/11/06 11:43:18;;;;;;;;;;;;;;;14.12;73.81;93292.69;5036386;28;19913;-35
2022/11/06 11:45:43;;;;;;;;;;;;;;;14.09;73.90;93285.50;5046994;28;20473;-35
2022/11/06 11:48:12;;;;;;;;;;;;;;;13.97;74.11;93276.25;5044452;28;20025;-34
2022/11/06 11:50:37;;;;;;;;;;;;;;;14.01;74.91;93273.78;5044270;28;20414;-35
2022/11/06 11:53:21;;;;;;;;;;;;;;;14.01;74.21;93271.00;5029235;28;20006;-35
2022/11/06 11:55:47;;;;;;;;;;;;;;;14.16;71.60;93268.72;5047719;28;19925;-34
2022/11/06 11:58:19;;;;;;;;;;;;;;;14.36;70.66;93273.09;5032972;28;19959;-34
2022/11/06 12:01:10;;;;;;;;;;;;;;;14.44;71.54;93261.91;5046946;28;19924;-35
2022/11/06 12:03:39;;;;;;;;;;;;;;;14.65;70.12;93278.03;5036169;28;19917;-35
2022/11/06 12:06:05;;;;;;;;;;;;;;;14.64;71.28;93274.53;5040527;28;19912;-35
2022/11/06 12:08:31;;;;;;;;;;;;;;;14.76;69.29;93283.06;5035808;28;19909;-35
2022/11/06 12:11:02;;;;;;;;;;;;;;;14.88;68.83;93281.19;5046723;28;19916;-34
2022/11/06 12:13:28;;;;;;;;;;;;;;;14.97;69.51;93284.00;5044549;28;19952;-35
2022/11/06 12:15:54;;;;;;;;;;;;;;;14.90;69.37;93287.63;5044433;28;19944;-35
2022/11/06 12:18:30;;;;;;;;;;;;;;;14.99;68.00;93280.63;5029293;28;20518;-35
2022/11/06 12:20:57;;;;;;;;;;;;;;;14.94;66.04;93274.03;5047339;28;19916;-34
2022/11/06 12:23:24;;;;;;;;;;;;;;;14.90;68.20;93270.25;5049533;28;19908;-35
2022/11/06 12:25:58;;;;;;;;;;;;;;;14.82;69.77;93273.13;5048793;28;19978;-35
2022/11/06 12:28:23;;;;;;;;;;;;;;;14.81;69.47;93266.09;5034802;28;19915;-34
2022/11/06 12:30:49;;;;;;;;;;;;;;;14.96;70.90;93265.13;5027914;28;19909;-34
2022/11/06 12:33:16;;;;;;;;;;;;;;;15.00;70.64;93266.16;5031747;28;19915;-35
2022/11/06 12:35:41;;;;;;;;;;;;;;;15.01;68.68;93262.06;5047404;28;19944;-34
2022/11/06 12:38:16;;;;;;;;;;;;;;;15.02;67.88;93262.78;5053869;28;19986;-36
2022/11/06 12:40:47;;;;;;;;;;;;;;;15.09;69.05;93271.00;5049632;28;19924;-35
2022/11/06 12:43:20;;;;;;;;;;;;;;;15.12;67.88;93280.22;5048117;28;19955;-34
2022/11/06 12:46:08;;;;;;;;;;;;;;;15.17;68.55;93276.44;5044984;28;19916;-35
2022/11/06 12:48:52;;;;;;;;;;;;;;;15.13;69.72;93282.44;5036411;28;20446;-34
2022/11/06 12:51:33;;;;;;;;;;;;;;;15.13;69.99;93278.91;5048712;28;19993;-35
2022/11/06 12:54:01;;;;;;;;;;;;;;;14.96;65.58;93282.56;5049154;28;20415;-34
2022/11/06 12:56:59;;;;;;;;;;;;;;;14.97;66.50;93286.03;5029588;28;19916;-34
2022/11/06 12:59:43;;;;;;;;;;;;;;;14.89;67.45;93296.56;5016402;28;19909;-35
2022/11/06 13:02:23;;;;;;;;;;;;;;;14.84;68.44;93303.84;5046189;28;19951;-35